Time;durP1;ratioP1;P1;durP2;ratioP2;P2;SDS_P1;SDS_P2;PMS_P1;PMS_P2;Temp;Humidity;BMP_temperature;BMP_pressure;BME280_temperature;BME280_humidity;BME280_pressure;Samples;Min_cycle;Max_cycle;Signal;HPM_P1;HPM_P2
2024/01/23 00:01:27;;;;;;;3.70;1.10;;;28.50;99.90;;;;;;4960786;28;20577;-71
2024/01/23 00:03:55;;;;;;;7.57;1.63;;;28.40;99.90;;;;;;4953595;29;20183;-71
2024/01/23 00:06:22;;;;;;;5.10;1.10;;;28.00;99.90;;;;;;4954210;28;20230;-70
2024/01/23 00:08:52;;;;;;;4.30;1.30;;;26.90;99.90;;;;;;4971544;28;20214;-71
2024/01/23 00:11:20;;;;;;;10.37;1.40;;;26.70;99.90;;;;;;4972701;28;20183;-72
2024/01/23 00:13:48;;;;;;;8.73;1.23;;;26.60;99.90;;;;;;4969923;28;20245;-72
2024/01/23 00:16:16;;;;;;;4.73;1.23;;;26.70;99.90;;;;;;4974144;28;20179;-71
2024/01/23 00:18:44;;;;;;;5.20;1.40;;;26.70;99.90;;;;;;4974258;28;20288;-72
2024/01/23 00:21:12;;;;;;;6.77;0.97;;;26.60;99.90;;;;;;4973424;28;20198;-71
2024/01/23 00:23:39;;;;;;;7.07;1.60;;;26.10;99.90;;;;;;4974115;28;20191;-72
2024/01/23 00:26:07;;;;;;;5.50;1.53;;;25.90;99.90;;;;;;4956694;28;20184;-71
2024/01/23 00:28:35;;;;;;;6.63;1.63;;;25.60;99.90;;;;;;4954756;28;20247;-71
2024/01/23 00:31:02;;;;;;;7.10;1.70;;;25.40;99.90;;;;;;4954982;28;20186;-71
2024/01/23 00:33:30;;;;;;;4.23;1.23;;;25.40;99.90;;;;;;4954907;28;20171;-71
2024/01/23 00:35:58;;;;;;;3.27;1.30;;;25.70;99.90;;;;;;4957895;28;20224;-70
2024/01/23 00:38:25;;;;;;;5.93;1.10;;;26.70;99.90;;;;;;4953761;29;20250;-71
2024/01/23 00:40:53;;;;;;;4.53;0.70;;;27.40;99.90;;;;;;4955963;28;20235;-71
2024/01/23 00:43:21;;;;;;;3.70;0.83;;;27.70;99.90;;;;;;4973871;28;20567;-71
2024/01/23 00:45:48;;;;;;;2.00;0.70;;;27.40;99.90;;;;;;4963748;28;20203;-70
2024/01/23 00:48:16;;;;;;;4.70;1.10;;;27.00;99.90;;;;;;4961868;28;20171;-70
2024/01/23 00:50:44;;;;;;;6.90;1.30;;;26.90;99.90;;;;;;4965754;28;20184;-69
2024/01/23 00:53:11;;;;;;;4.87;1.10;;;27.10;99.90;;;;;;4965151;28;20180;-69
2024/01/23 00:55:39;;;;;;;4.57;0.73;;;27.20;99.90;;;;;;4962929;28;20704;-69
2024/01/23 00:58:07;;;;;;;3.07;0.83;;;27.30;99.90;;;;;;4964186;28;20199;-70
2024/01/23 01:00:35;;;;;;;4.10;0.90;;;27.80;99.90;;;;;;4964548;28;20323;-70
2024/01/23 01:03:03;;;;;;;8.67;1.30;;;27.70;99.90;;;;;;4963063;28;20723;-71
2024/01/23 01:05:31;;;;;;;5.77;1.00;;;27.60;99.90;;;;;;4962305;28;20270;-70
2024/01/23 01:07:58;;;;;;;2.80;0.90;;;28.30;99.90;;;;;;4963611;28;20184;-71
2024/01/23 01:10:26;;;;;;;2.87;0.80;;;28.80;99.90;;;;;;4963156;28;20208;-70
2024/01/23 01:12:54;;;;;;;3.27;0.73;;;28.50;99.90;;;;;;4963166;28;20251;-70
2024/01/23 01:15:22;;;;;;;1.73;0.77;;;28.90;99.90;;;;;;4968112;28;20214;-70
2024/01/23 01:21:11;;;;;;;4.47;1.17;;;29.50;99.90;;;;;;4973167;28;20542;-71
2024/01/23 01:23:39;;;;;;;5.23;1.17;;;28.60;99.90;;;;;;4950170;28;20180;-72
2024/01/23 01:26:07;;;;;;;3.27;0.90;;;28.10;99.90;;;;;;4974744;28;20271;-72
2024/01/23 01:28:34;;;;;;;1.97;0.70;;;28.20;99.90;;;;;;4975533;28;20230;-72
2024/01/23 01:31:02;;;;;;;4.37;1.23;;;27.90;99.90;;;;;;4974829;28;20720;-72
2024/01/23 01:33:30;;;;;;;4.20;0.93;;;28.60;99.90;;;;;;4975462;28;20176;-72
2024/01/23 01:35:58;;;;;;;6.73;1.30;;;28.50;99.90;;;;;;4975087;28;20227;-72
2024/01/23 01:38:25;;;;;;;3.17;1.00;;;28.00;99.90;;;;;;4974959;28;20182;-72
2024/01/23 01:40:54;;;;;;;2.00;0.87;;;28.30;99.90;;;;;;4975111;28;20182;-72
2024/01/23 01:43:28;;;;;;;4.83;1.40;;;28.70;99.90;;;;;;4975238;28;20637;-72
2024/01/23 01:46:17;;;;;;;3.57;0.97;;;28.50;99.90;;;;;;4974441;28;20206;-72
2024/01/23 01:48:45;;;;;;;3.03;0.97;;;27.90;99.90;;;;;;4975096;28;20266;-72
2024/01/23 01:51:15;;;;;;;2.97;0.97;;;27.30;99.90;;;;;;4974922;28;20171;-72
2024/01/23 01:53:45;;;;;;;3.47;0.77;;;27.30;99.90;;;;;;4974779;28;20180;-72
2024/01/23 01:56:13;;;;;;;4.57;1.07;;;27.10;99.90;;;;;;4975400;28;20202;-72
2024/01/23 01:58:43;;;;;;;4.30;1.07;;;27.20;99.90;;;;;;4976762;28;20179;-71
2024/01/23 02:01:11;;;;;;;3.80;0.80;;;27.80;99.90;;;;;;4976555;28;20213;-72
2024/01/23 02:03:39;;;;;;;3.37;1.00;;;28.20;99.90;;;;;;4976717;28;20190;-73
2024/01/23 02:06:08;;;;;;;3.47;1.20;;;28.30;99.90;;;;;;4976448;28;20257;-74
2024/01/23 02:08:37;;;;;;;5.00;0.97;;;28.00;99.90;;;;;;4976339;28;20673;-73
2024/01/23 02:11:05;;;;;;;5.17;0.87;;;28.00;99.90;;;;;;4976239;28;20175;-75
2024/01/23 02:13:32;;;;;;;5.30;1.07;;;27.60;99.90;;;;;;4975038;28;20532;-74
2024/01/23 02:16:00;;;;;;;4.70;1.23;;;27.10;99.90;;;;;;4976223;28;20179;-74
2024/01/23 02:18:28;;;;;;;4.40;1.30;;;26.90;99.90;;;;;;4976327;28;20490;-74
2024/01/23 02:20:56;;;;;;;6.30;1.50;;;26.70;99.90;;;;;;4976055;28;20273;-74
2024/01/23 02:23:30;;;;;;;5.07;1.30;;;26.60;99.90;;;;;;4976561;28;20171;-74
2024/01/23 02:25:58;;;;;;;6.83;1.23;;;26.60;99.90;;;;;;4976349;28;20187;-75
2024/01/23 02:28:27;;;;;;;4.47;0.93;;;26.60;99.90;;;;;;4976228;28;20648;-74
2024/01/23 02:30:55;;;;;;;5.97;1.17;;;26.50;99.90;;;;;;4976223;28;20237;-74
2024/01/23 02:33:23;;;;;;;5.00;1.10;;;26.10;99.90;;;;;;4953116;28;20253;-74
2024/01/23 02:35:50;;;;;;;6.77;1.50;;;26.00;99.90;;;;;;4973552;28;20253;-74
2024/01/23 02:38:18;;;;;;;4.93;1.30;;;26.00;99.90;;;;;;4974053;28;20187;-74
2024/01/23 02:40:46;;;;;;;5.87;0.87;;;26.00;99.90;;;;;;4971853;28;20254;-72
2024/01/23 02:43:13;;;;;;;6.67;1.07;;;26.50;99.90;;;;;;4973928;28;20194;-73
2024/01/23 02:45:41;;;;;;;5.50;1.03;;;26.90;99.90;;;;;;4973683;28;20192;-72
2024/01/23 02:48:09;;;;;;;3.47;1.20;;;27.40;99.90;;;;;;4973846;28;20187;-73
2024/01/23 02:50:36;;;;;;;6.80;1.50;;;28.20;99.90;;;;;;4963901;28;20659;-73
2024/01/23 02:53:04;;;;;;;5.20;1.03;;;29.40;99.90;;;;;;4955099;28;20616;-73
2024/01/23 02:55:32;;;;;;;5.47;1.30;;;29.60;99.90;;;;;;4969909;28;20211;-73
2024/01/23 02:58:00;;;;;;;3.60;1.30;;;29.30;99.90;;;;;;4974119;28;20651;-73
2024/01/23 03:00:27;;;;;;;2.40;1.00;;;29.40;99.90;;;;;;4974490;28;20548;-74
2024/01/23 03:02:55;;;;;;;2.43;0.80;;;29.60;99.90;;;;;;4968951;28;20259;-72
2024/01/23 03:05:23;;;;;;;7.67;1.53;;;29.50;99.90;;;;;;4959242;28;20182;-73
2024/01/23 03:07:52;;;;;;;2.93;0.97;;;29.20;99.90;;;;;;4974657;28;20258;-73
2024/01/23 03:10:20;;;;;;;3.70;1.10;;;29.30;99.90;;;;;;4973772;28;20298;-73
2024/01/23 03:12:47;;;;;;;2.70;1.00;;;29.90;99.90;;;;;;4947323;28;20183;-72
2024/01/23 03:15:15;;;;;;;3.87;0.90;;;29.70;99.90;;;;;;4963082;28;20281;-72
2024/01/23 03:17:43;;;;;;;8.93;1.00;;;29.80;99.90;;;;;;4973807;28;20182;-72
2024/01/23 03:20:11;;;;;;;3.40;1.00;;;30.10;99.90;;;;;;4960076;28;20196;-71
2024/01/23 03:22:39;;;;;;;4.33;1.20;;;30.40;99.90;;;;;;4972139;28;20227;-72
2024/01/23 03:25:06;;;;;;;4.60;1.27;;;30.50;99.90;;;;;;4967016;28;20184;-72
2024/01/23 03:27:34;;;;;;;3.47;1.20;;;30.00;99.90;;;;;;4954922;28;20207;-72
2024/01/23 03:30:02;;;;;;;3.73;0.80;;;29.60;99.90;;;;;;4954287;28;20230;-72
2024/01/23 03:32:29;;;;;;;3.97;1.13;;;29.10;99.90;;;;;;4969756;28;20190;-74
2024/01/23 03:34:57;;;;;;;7.07;1.07;;;28.70;99.90;;;;;;4957795;28;20250;-73
2024/01/23 03:37:25;;;;;;;4.30;1.07;;;28.70;99.90;;;;;;4972194;28;20175;-72
2024/01/23 03:39:52;;;;;;;8.43;1.27;;;28.70;99.90;;;;;;4973246;28;20183;-72
2024/01/23 03:42:20;;;;;;;5.67;1.10;;;28.40;99.90;;;;;;4973768;28;20176;-72
2024/01/23 03:44:48;;;;;;;6.30;1.00;;;28.20;99.90;;;;;;4968183;28;20207;-72
2024/01/23 03:47:16;;;;;;;2.27;1.07;;;27.80;99.90;;;;;;4954401;28;20180;-74
2024/01/23 03:49:43;;;;;;;4.93;1.07;;;27.60;99.90;;;;;;4954271;28;20216;-73
2024/01/23 03:52:11;;;;;;;4.13;0.87;;;27.60;99.90;;;;;;4954036;28;20172;-72
2024/01/23 03:54:39;;;;;;;4.87;1.30;;;28.70;99.90;;;;;;4954601;28;20243;-73
2024/01/23 03:57:07;;;;;;;4.10;0.83;;;28.90;99.90;;;;;;4954399;28;20177;-73
2024/01/23 03:59:35;;;;;;;5.57;1.07;;;29.20;99.90;;;;;;4953705;28;20176;-74
2024/01/23 04:02:02;;;;;;;5.73;1.13;;;29.20;99.90;;;;;;4954214;28;20226;-73
2024/01/23 04:04:30;;;;;;;6.30;1.03;;;28.90;99.90;;;;;;4958353;28;20183;-73
2024/01/23 04:06:58;;;;;;;5.77;1.37;;;29.40;99.90;;;;;;4973048;28;20250;-73
2024/01/23 04:09:25;;;;;;;8.07;1.07;;;29.70;99.90;;;;;;4973270;28;20203;-73
2024/01/23 04:11:53;;;;;;;3.83;0.90;;;30.10;99.90;;;;;;4973336;28;20634;-73
2024/01/23 04:14:21;;;;;;;4.77;1.00;;;30.50;99.90;;;;;;4971215;28;20202;-72
2024/01/23 04:16:48;;;;;;;4.53;1.30;;;30.70;99.90;;;;;;4959080;28;20191;-72
2024/01/23 04:19:16;;;;;;;3.77;0.93;;;29.80;99.90;;;;;;4971904;28;20338;-73
2024/01/23 04:21:46;;;;;;;3.37;1.40;;;28.70;99.90;;;;;;4972761;28;20661;-72
2024/01/23 04:24:14;;;;;;;5.97;1.13;;;28.80;99.90;;;;;;4972536;28;20261;-73
2024/01/23 04:26:48;;;;;;;7.63;1.00;;;29.50;99.90;;;;;;4954117;28;20238;-73
2024/01/23 04:29:16;;;;;;;5.60;1.20;;;29.00;99.90;;;;;;4953260;28;20215;-73
2024/01/23 04:31:44;;;;;;;5.67;0.80;;;28.70;99.90;;;;;;4955153;28;20191;-73
2024/01/23 04:34:11;;;;;;;9.93;1.67;;;28.40;99.90;;;;;;4973076;28;20202;-73
2024/01/23 04:36:39;;;;;;;4.97;1.27;;;28.30;99.90;;;;;;4955489;28;20227;-73
2024/01/23 04:39:07;;;;;;;6.17;1.00;;;27.90;99.90;;;;;;4953636;28;20195;-73
2024/01/23 04:41:34;;;;;;;4.83;1.23;;;27.90;99.90;;;;;;4953700;28;20618;-73
2024/01/23 04:44:02;;;;;;;4.23;1.03;;;28.00;99.90;;;;;;4971483;28;20183;-73
2024/01/23 04:46:30;;;;;;;4.97;1.20;;;27.60;99.90;;;;;;4958045;28;20199;-73
2024/01/23 04:48:58;;;;;;;6.97;1.20;;;27.50;99.90;;;;;;4953669;28;20223;-73
2024/01/23 04:51:25;;;;;;;4.47;1.30;;;27.40;99.90;;;;;;4956758;28;20178;-73
2024/01/23 04:53:54;;;;;;;5.63;1.20;;;27.40;99.90;;;;;;4953853;28;20267;-73
2024/01/23 04:56:21;;;;;;;6.80;1.90;;;27.60;99.90;;;;;;4966891;28;20186;-73
2024/01/23 04:58:49;;;;;;;6.50;1.63;;;27.90;99.90;;;;;;4972527;28;20683;-72
2024/01/23 05:01:17;;;;;;;12.37;1.37;;;28.80;99.90;;;;;;4966715;28;20179;-73
2024/01/23 05:03:45;;;;;;;6.60;1.57;;;29.40;99.90;;;;;;4976491;28;20720;-73
2024/01/23 05:06:13;;;;;;;7.77;1.33;;;29.10;99.90;;;;;;4976171;28;20182;-73
2024/01/23 05:08:41;;;;;;;4.97;1.10;;;28.70;99.90;;;;;;4975322;28;20270;-73
2024/01/23 05:11:08;;;;;;;4.73;1.07;;;28.20;99.90;;;;;;4967153;28;20661;-74
2024/01/23 05:13:36;;;;;;;5.83;1.30;;;28.10;99.90;;;;;;4956929;28;20642;-73
2024/01/23 05:16:04;;;;;;;3.83;1.40;;;28.10;99.90;;;;;;4957266;28;20176;-73
2024/01/23 05:18:31;;;;;;;6.33;1.37;;;28.70;99.90;;;;;;4957126;28;20267;-73
2024/01/23 05:20:59;;;;;;;4.07;1.00;;;29.10;99.90;;;;;;4961395;28;20184;-73
2024/01/23 05:23:27;;;;;;;3.90;1.17;;;28.60;99.90;;;;;;4976449;28;20546;-73
2024/01/23 05:25:55;;;;;;;4.93;1.20;;;28.10;99.90;;;;;;4976349;28;20258;-73
2024/01/23 05:28:23;;;;;;;4.47;1.20;;;27.90;99.90;;;;;;4963394;28;20246;-73
2024/01/23 05:30:50;;;;;;;5.10;1.10;;;28.60;99.90;;;;;;4959767;28;20279;-73
2024/01/23 05:33:18;;;;;;;3.47;1.00;;;28.60;99.90;;;;;;4976129;28;20175;-74
2024/01/23 05:35:46;;;;;;;5.77;1.40;;;28.10;99.90;;;;;;4970947;28;20598;-75
2024/01/23 05:38:14;;;;;;;5.77;1.33;;;27.60;99.90;;;;;;4963635;28;20528;-75
2024/01/23 05:40:41;;;;;;;8.33;1.20;;;27.50;99.90;;;;;;4964981;28;20234;-73
2024/01/23 05:43:09;;;;;;;8.60;1.43;;;27.60;99.90;;;;;;4973895;28;20209;-75
2024/01/23 05:45:37;;;;;;;4.43;1.03;;;28.40;99.90;;;;;;4975818;28;20179;-75
2024/01/23 05:48:05;;;;;;;5.23;1.50;;;28.80;99.90;;;;;;4976281;28;20253;-79
2024/01/23 05:50:32;;;;;;;7.50;1.17;;;29.10;99.90;;;;;;4975330;28;20211;-76
2024/01/23 05:53:00;;;;;;;7.40;1.30;;;28.80;99.90;;;;;;4958554;28;20184;-74
2024/01/23 05:55:28;;;;;;;8.17;1.27;;;28.50;99.90;;;;;;4962555;28;20176;-77
2024/01/23 05:57:55;;;;;;;5.23;1.20;;;28.40;99.90;;;;;;4972580;28;20203;-76
2024/01/23 06:00:23;;;;;;;3.87;1.27;;;28.90;99.90;;;;;;4973797;28;20273;-73
2024/01/23 06:02:51;;;;;;;7.03;0.80;;;28.90;99.90;;;;;;4960683;28;20180;-77
2024/01/23 06:05:19;;;;;;;6.27;1.57;;;29.00;99.90;;;;;;4955807;28;20558;-72
2024/01/23 06:07:49;;;;;;;4.47;1.53;;;28.90;99.90;;;;;;4956309;28;20210;-74
2024/01/23 06:10:20;;;;;;;5.40;1.57;;;28.70;99.90;;;;;;4955756;28;20239;-73
2024/01/23 06:12:48;;;;;;;6.83;1.17;;;28.50;99.90;;;;;;4969113;28;20336;-75
2024/01/23 06:15:15;;;;;;;2.57;0.93;;;28.30;99.90;;;;;;4975361;28;20187;-73
2024/01/23 06:17:43;;;;;;;5.60;0.83;;;27.80;99.90;;;;;;4975279;28;20184;-76
2024/01/23 06:20:14;;;;;;;2.43;0.80;;;27.60;99.90;;;;;;4974714;28;20262;-73
2024/01/23 06:22:42;;;;;;;3.83;1.10;;;27.70;99.90;;;;;;4962336;28;20645;-73
2024/01/23 06:25:16;;;;;;;5.33;0.83;;;27.20;99.90;;;;;;4955932;28;20192;-74
2024/01/23 06:27:45;;;;;;;4.27;1.20;;;26.90;99.90;;;;;;4955615;28;20194;-76
2024/01/23 06:30:13;;;;;;;2.63;0.80;;;26.70;99.90;;;;;;4956079;28;20220;-78
2024/01/23 06:32:42;;;;;;;5.00;1.17;;;26.80;99.90;;;;;;4956186;28;20262;-76
2024/01/23 06:35:10;;;;;;;4.37;1.00;;;26.80;99.90;;;;;;4955253;28;20290;-76
2024/01/23 06:37:38;;;;;;;5.80;1.37;;;27.20;99.90;;;;;;4955689;28;20724;-77
2024/01/23 06:40:06;;;;;;;6.37;1.13;;;27.70;99.90;;;;;;4957619;28;20661;-76
2024/01/23 06:42:35;;;;;;;4.47;0.90;;;27.80;99.90;;;;;;4964828;28;20245;-75
2024/01/23 06:45:03;;;;;;;2.20;1.00;;;27.30;99.90;;;;;;4973730;28;20187;-76
2024/01/23 06:47:31;;;;;;;5.03;1.10;;;26.90;99.90;;;;;;4974942;28;20179;-77
2024/01/23 06:49:59;;;;;;;3.00;0.93;;;26.60;99.90;;;;;;4964893;28;20716;-76
2024/01/23 06:52:27;;;;;;;3.63;0.90;;;26.50;99.90;;;;;;4963863;28;20190;-76
2024/01/23 06:54:54;;;;;;;4.90;1.37;;;26.60;99.90;;;;;;4974845;28;20187;-77
2024/01/23 06:57:22;;;;;;;3.33;0.90;;;26.70;99.90;;;;;;4974269;28;20187;-76
2024/01/23 06:59:50;;;;;;;4.87;0.97;;;26.80;99.90;;;;;;4974346;28;20179;-75
2024/01/23 07:02:18;;;;;;;5.63;1.20;;;27.00;99.90;;;;;;4963348;28;20210;-76
2024/01/23 07:04:46;;;;;;;11.10;1.73;;;26.80;99.90;;;;;;4975466;28;20211;-77
2024/01/23 07:07:13;;;;;;;6.13;1.10;;;27.00;99.90;;;;;;4974361;28;20538;-76
2024/01/23 07:09:41;;;;;;;5.37;1.40;;;27.20;99.90;;;;;;4975328;28;20219;-75
2024/01/23 07:12:09;;;;;;;6.53;1.40;;;27.10;99.90;;;;;;4972327;28;20183;-76
2024/01/23 07:14:36;;;;;;;3.73;1.17;;;27.20;99.90;;;;;;4956159;28;20184;-75
2024/01/23 07:17:04;;;;;;;4.00;1.20;;;27.20;99.90;;;;;;4975999;28;20578;-76
2024/01/23 07:19:32;;;;;;;7.57;1.20;;;27.10;99.90;;;;;;4975157;28;20183;-75
2024/01/23 07:22:00;;;;;;;4.00;1.07;;;27.10;99.90;;;;;;4969034;28;20238;-77
2024/01/23 07:24:28;;;;;;;5.50;1.27;;;27.00;99.90;;;;;;4954677;29;20583;-76
2024/01/23 07:26:56;;;;;;;5.93;1.23;;;27.00;99.90;;;;;;4956209;28;20183;-77
2024/01/23 07:29:24;;;;;;;3.10;0.67;;;26.90;99.90;;;;;;4955659;28;20200;-76
2024/01/23 07:31:52;;;;;;;5.50;1.00;;;26.80;99.90;;;;;;4958907;28;20183;-77
2024/01/23 07:34:19;;;;;;;6.07;1.20;;;26.70;99.90;;;;;;4975096;28;20262;-77
2024/01/23 07:36:47;;;;;;;6.63;1.20;;;26.70;99.90;;;;;;4954198;28;20262;-76
2024/01/23 07:39:15;;;;;;;3.10;1.27;;;26.70;99.90;;;;;;4963522;28;20234;-79
2024/01/23 07:41:44;;;;;;;4.43;0.83;;;26.70;99.90;;;;;;4970899;28;20632;-76
2024/01/23 07:44:12;;;;;;;5.67;1.33;;;26.60;99.90;;;;;;4954440;28;20187;-76
2024/01/23 07:46:39;;;;;;;4.47;0.90;;;26.40;99.90;;;;;;4954373;28;20191;-76
2024/01/23 07:49:07;;;;;;;5.07;1.30;;;26.50;99.90;;;;;;4959681;28;20669;-74
2024/01/23 07:51:51;;;;;;;4.97;1.33;;;26.20;99.90;;;;;;4972647;28;20175;-77
2024/01/23 07:54:19;;;;;;;3.13;1.00;;;26.10;99.90;;;;;;4967376;28;20190;-77
2024/01/23 07:56:46;;;;;;;4.37;0.90;;;26.00;99.90;;;;;;4970987;28;20246;-73
2024/01/23 07:59:14;;;;;;;6.17;1.10;;;26.00;99.90;;;;;;4953798;28;20180;-78
2024/01/23 08:01:42;;;;;;;6.10;1.17;;;25.80;99.90;;;;;;4956258;28;20188;-77
2024/01/23 08:04:13;;;;;;;8.00;1.23;;;25.80;99.90;;;;;;4973459;28;20279;-76
2024/01/23 08:06:40;;;;;;;6.33;0.90;;;25.60;99.90;;;;;;4969467;28;20183;-77
2024/01/23 08:09:08;;;;;;;4.17;1.00;;;25.50;99.90;;;;;;4972114;28;20270;-76
2024/01/23 08:11:36;;;;;;;6.70;1.00;;;25.30;99.90;;;;;;4967686;28;20253;-77
2024/01/23 08:14:04;;;;;;;5.23;1.27;;;25.10;99.90;;;;;;4952235;29;20247;-76
2024/01/23 08:16:31;;;;;;;10.53;1.67;;;24.90;99.90;;;;;;4953878;28;20263;-77
2024/01/23 08:19:02;;;;;;;8.77;2.17;;;24.70;99.90;;;;;;4953952;28;20187;-77
2024/01/23 08:21:30;;;;;;;4.03;1.00;;;24.60;99.90;;;;;;4952371;28;20188;-76
2024/01/23 08:23:57;;;;;;;3.77;1.00;;;24.50;99.90;;;;;;4953916;28;20180;-76
2024/01/23 08:26:25;;;;;;;7.33;1.10;;;24.50;99.90;;;;;;4965267;28;20202;-77
2024/01/23 08:28:53;;;;;;;5.40;1.13;;;24.40;99.90;;;;;;4972438;28;20560;-77
2024/01/23 08:31:20;;;;;;;6.40;1.37;;;24.30;99.90;;;;;;4965198;28;20541;-77
2024/01/23 08:33:48;;;;;;;7.43;1.47;;;24.20;99.90;;;;;;4953776;28;20736;-77
2024/01/23 08:36:16;;;;;;;5.97;0.93;;;24.20;99.90;;;;;;4957191;28;20242;-77
2024/01/23 08:38:44;;;;;;;6.33;1.37;;;24.20;99.90;;;;;;4957952;28;20207;-77
2024/01/23 08:41:12;;;;;;;6.03;1.17;;;24.10;99.90;;;;;;4956809;28;20187;-76
2024/01/23 08:43:40;;;;;;;7.80;1.60;;;24.00;99.90;;;;;;4965920;28;20183;-75
2024/01/23 08:46:07;;;;;;;3.93;0.93;;;23.90;99.90;;;;;;4974920;28;20190;-75
2024/01/23 08:48:35;;;;;;;6.47;1.53;;;23.90;99.90;;;;;;4976317;28;20177;-74
2024/01/23 08:51:03;;;;;;;7.27;1.40;;;23.90;99.90;;;;;;4974797;28;20190;-73
2024/01/23 08:53:33;;;;;;;7.83;1.50;;;23.80;99.90;;;;;;4977649;28;20274;-74
2024/01/23 08:56:00;;;;;;;7.07;1.53;;;23.90;99.90;;;;;;4977999;28;20535;-73
2024/01/23 08:58:28;;;;;;;7.37;1.47;;;23.80;99.90;;;;;;4966842;28;20730;-75
2024/01/23 09:00:56;;;;;;;4.73;1.27;;;23.80;99.90;;;;;;4968138;28;20188;-76
2024/01/23 09:03:24;;;;;;;5.33;1.30;;;23.80;99.90;;;;;;4959568;28;20250;-76
2024/01/23 09:05:52;;;;;;;6.30;1.63;;;23.60;99.90;;;;;;4964626;28;20671;-76
2024/01/23 09:08:19;;;;;;;7.27;1.93;;;23.70;99.90;;;;;;4976548;28;20179;-75
2024/01/23 09:10:49;;;;;;;6.00;1.53;;;23.60;99.90;;;;;;4975729;28;20309;-75
2024/01/23 09:13:17;;;;;;;9.63;1.53;;;23.60;99.90;;;;;;4970219;28;20259;-76
2024/01/23 09:15:44;;;;;;;4.93;1.67;;;23.60;99.90;;;;;;4956428;28;20188;-75
2024/01/23 09:18:12;;;;;;;7.30;1.60;;;23.60;99.90;;;;;;4955738;28;20267;-76
2024/01/23 09:20:39;;;;;;;6.03;1.37;;;23.50;99.90;;;;;;4956533;28;20194;-75
2024/01/23 09:23:07;;;;;;;6.00;1.40;;;23.50;99.90;;;;;;4956906;28;20180;-76
2024/01/23 09:25:34;;;;;;;7.80;1.70;;;23.50;99.90;;;;;;4956808;28;20219;-75
2024/01/23 09:28:02;;;;;;;4.23;1.20;;;23.50;99.90;;;;;;4956391;28;20665;-76
2024/01/23 09:30:29;;;;;;;6.83;1.57;;;23.40;99.90;;;;;;4956590;29;20244;-75
2024/01/23 09:32:58;;;;;;;6.23;1.53;;;23.40;99.90;;;;;;4956878;28;20188;-76
2024/01/23 09:35:25;;;;;;;5.07;1.50;;;23.30;99.90;;;;;;4956084;28;20247;-76
2024/01/23 09:37:52;;;;;;;9.77;1.30;;;23.40;99.90;;;;;;4956901;28;20188;-75
2024/01/23 09:40:20;;;;;;;6.47;1.37;;;23.30;99.90;;;;;;4957417;28;20182;-76
2024/01/23 09:42:48;;;;;;;4.43;1.03;;;23.30;99.90;;;;;;4957763;29;20263;-74
2024/01/23 09:45:20;;;;;;;7.93;1.30;;;23.30;99.90;;;;;;4956971;28;20176;-74
2024/01/23 09:47:48;;;;;;;5.10;1.33;;;23.30;99.90;;;;;;4957401;28;20195;-75
2024/01/23 09:50:18;;;;;;;6.00;1.70;;;23.20;99.90;;;;;;4957755;28;20218;-74
2024/01/23 09:52:46;;;;;;;5.67;1.10;;;23.20;99.90;;;;;;4958059;28;20176;-74
2024/01/23 09:55:14;;;;;;;3.33;1.10;;;23.20;99.90;;;;;;4957763;28;20230;-75
2024/01/23 09:57:43;;;;;;;9.30;1.50;;;23.20;99.90;;;;;;4957600;28;20180;-76
2024/01/23 10:00:14;;;;;;;8.03;1.20;;;23.20;99.90;;;;;;4957380;28;20179;-76
2024/01/23 10:02:46;;;;;;;5.90;1.30;;;23.20;99.90;;;;;;4957692;28;20183;-75
2024/01/23 10:05:17;;;;;;;6.83;1.50;;;23.20;99.90;;;;;;4957769;28;20210;-75
2024/01/23 10:07:45;;;;;;;9.33;1.63;;;23.10;99.90;;;;;;4957744;28;20183;-75
2024/01/23 10:10:17;;;;;;;7.63;1.67;;;23.00;99.90;;;;;;4955812;29;20575;-74
2024/01/23 10:12:49;;;;;;;11.20;2.07;;;23.00;99.90;;;;;;4957430;28;20176;-75
2024/01/23 10:15:22;;;;;;;12.13;1.40;;;22.90;99.90;;;;;;4957416;28;20179;-75
2024/01/23 10:17:50;;;;;;;9.07;1.70;;;22.90;99.90;;;;;;4957371;28;20187;-74
2024/01/23 10:20:18;;;;;;;9.00;1.90;;;22.80;99.90;;;;;;4956999;28;20218;-75
2024/01/23 10:22:45;;;;;;;6.90;1.63;;;22.80;99.90;;;;;;4957415;28;20180;-76
2024/01/23 10:25:19;;;;;;;4.37;1.63;;;22.70;99.90;;;;;;4957135;28;20663;-75
2024/01/23 10:27:50;;;;;;;7.97;1.77;;;22.70;99.90;;;;;;4957242;28;20176;-75
2024/01/23 10:30:18;;;;;;;5.20;1.93;;;22.60;99.90;;;;;;4957071;28;20263;-75
2024/01/23 10:32:47;;;;;;;7.03;1.40;;;22.60;99.90;;;;;;4957245;28;20177;-76
2024/01/23 10:35:15;;;;;;;8.67;2.00;;;22.50;99.90;;;;;;4956883;28;20314;-75
2024/01/23 10:37:44;;;;;;;8.13;2.07;;;22.50;99.90;;;;;;4948568;28;20184;-74
2024/01/23 10:40:15;;;;;;;6.43;1.70;;;22.50;99.90;;;;;;4962508;28;20186;-75
2024/01/23 10:42:43;;;;;;;6.77;2.20;;;22.50;99.90;;;;;;4973936;28;20203;-75
2024/01/23 10:45:11;;;;;;;7.83;1.50;;;22.40;99.90;;;;;;4974642;28;20191;-75
2024/01/23 10:47:39;;;;;;;8.87;1.67;;;22.40;99.90;;;;;;4973802;28;20290;-75
2024/01/23 10:50:09;;;;;;;6.57;1.50;;;22.30;99.90;;;;;;4974288;28;20563;-75
2024/01/23 10:52:40;;;;;;;10.83;1.53;;;22.30;99.90;;;;;;4974505;28;20596;-75
2024/01/23 10:55:09;;;;;;;10.40;1.90;;;22.30;99.90;;;;;;4969834;28;20188;-77
2024/01/23 10:57:38;;;;;;;6.83;1.83;;;22.30;99.90;;;;;;4970225;28;20241;-75
2024/01/23 11:00:10;;;;;;;8.63;1.60;;;22.20;99.90;;;;;;4974430;28;20192;-78
2024/01/23 11:02:54;;;;;;;12.27;1.77;;;22.20;99.90;;;;;;4974632;28;20175;-75
2024/01/23 11:05:30;;;;;;;7.07;1.87;;;22.20;99.90;;;;;;4974446;28;20202;-75
2024/01/23 11:08:02;;;;;;;6.53;1.53;;;22.20;99.90;;;;;;4972824;28;20687;-76
2024/01/23 11:11:24;;;;;;;7.47;1.43;;;22.20;99.90;;;;;;4956902;28;20216;-75
2024/01/23 11:13:59;;;;;;;5.93;1.40;;;22.20;99.90;;;;;;4950472;29;20207;-76
2024/01/23 11:16:28;;;;;;;8.37;1.50;;;22.10;99.90;;;;;;4956265;28;20183;-76
2024/01/23 11:18:56;;;;;;;10.07;1.73;;;22.00;99.90;;;;;;4974348;28;20190;-77
2024/01/23 11:21:26;;;;;;;6.77;1.50;;;22.00;99.90;;;;;;4967517;28;20184;-77
2024/01/23 11:24:02;;;;;;;6.67;1.73;;;22.00;99.90;;;;;;4966432;28;20283;-76
2024/01/23 11:26:32;;;;;;;4.37;1.20;;;22.00;99.90;;;;;;4971996;28;20644;-77
2024/01/23 11:29:05;;;;;;;8.23;1.47;;;22.00;99.90;;;;;;4954867;28;20207;-76
2024/01/23 11:31:40;;;;;;;8.67;1.50;;;21.90;99.90;;;;;;4954410;28;20638;-77
2024/01/23 11:34:38;;;;;;;7.57;1.30;;;21.80;99.90;;;;;;4955034;28;20753;-77
2024/01/23 11:37:25;;;;;;;5.50;1.07;;;21.90;99.90;;;;;;4954805;28;20562;-76
2024/01/23 11:39:58;;;;;;;8.33;1.70;;;21.80;99.90;;;;;;4953561;29;20298;-75
2024/01/23 11:42:46;;;;;;;7.97;1.87;;;21.80;99.90;;;;;;4955152;29;20180;-76
2024/01/23 11:45:33;;;;;;;6.13;1.40;;;21.70;99.90;;;;;;4954498;28;20215;-76
2024/01/23 11:48:05;;;;;;;9.00;2.07;;;21.70;99.90;;;;;;4955257;28;20187;-76
2024/01/23 11:50:35;;;;;;;12.00;1.47;;;21.70;99.90;;;;;;4954777;28;20219;-74
2024/01/23 11:53:03;;;;;;;7.03;1.47;;;21.60;99.90;;;;;;4962934;28;20183;-75
2024/01/23 11:55:31;;;;;;;9.77;1.80;;;21.60;99.90;;;;;;4965266;28;20263;-75
2024/01/23 11:57:59;;;;;;;10.23;1.67;;;21.60;99.90;;;;;;4958339;28;20350;-77
2024/01/23 12:00:27;;;;;;;9.67;1.50;;;21.60;99.90;;;;;;4954412;28;20316;-77
2024/01/23 12:02:54;;;;;;;10.77;1.80;;;21.60;99.90;;;;;;4971726;28;20274;-76
2024/01/23 12:05:22;;;;;;;4.50;1.47;;;21.60;99.90;;;;;;4973099;28;20187;-78
2024/01/23 12:07:49;;;;;;;8.93;1.53;;;21.50;99.90;;;;;;4972798;28;20273;-76
2024/01/23 12:10:18;;;;;;;6.97;1.20;;;21.50;99.90;;;;;;4973109;28;20593;-77
2024/01/23 12:12:46;;;;;;;8.23;1.63;;;21.40;99.90;;;;;;4973621;28;20655;-75
2024/01/23 12:15:14;;;;;;;6.67;1.33;;;21.30;99.90;;;;;;4972809;28;20592;-77
2024/01/23 12:17:50;;;;;;;5.80;1.63;;;21.30;99.90;;;;;;4973330;28;20705;-76
2024/01/23 12:20:17;;;;;;;4.30;1.10;;;21.40;99.90;;;;;;4973345;28;20185;-74
2024/01/23 12:22:45;;;;;;;5.53;1.30;;;21.30;99.90;;;;;;4973032;28;20191;-75
2024/01/23 12:25:13;;;;;;;7.00;1.40;;;21.20;99.90;;;;;;4972589;28;20293;-76
2024/01/23 12:27:44;;;;;;;6.00;1.50;;;21.10;99.90;;;;;;4973814;28;20195;-75
2024/01/23 12:30:15;;;;;;;6.60;1.37;;;21.00;99.90;;;;;;4973829;28;20718;-76
2024/01/23 12:32:52;;;;;;;6.93;1.33;;;20.90;99.90;;;;;;4955049;28;20559;-76
2024/01/23 12:35:21;;;;;;;8.97;1.67;;;20.80;99.90;;;;;;4955876;28;20238;-75
2024/01/23 12:37:52;;;;;;;6.67;1.77;;;20.80;99.90;;;;;;4954879;28;20183;-76
2024/01/23 12:40:21;;;;;;;3.60;1.13;;;20.70;99.90;;;;;;4954729;28;20176;-76
2024/01/23 12:42:49;;;;;;;5.07;1.50;;;20.80;99.90;;;;;;4961597;28;20201;-75
2024/01/23 12:45:18;;;;;;;7.67;1.37;;;20.80;99.90;;;;;;4956448;28;20191;-76
2024/01/23 12:47:50;;;;;;;4.33;1.37;;;20.80;99.90;;;;;;4954932;28;20184;-76
2024/01/23 12:50:20;;;;;;;7.03;1.57;;;20.90;99.90;;;;;;4961219;28;20203;-76
2024/01/23 12:52:50;;;;;;;9.20;1.70;;;20.90;99.90;;;;;;4973866;28;20194;-76
2024/01/23 12:55:18;;;;;;;10.47;1.80;;;20.90;99.90;;;;;;4972966;28;20187;-76
2024/01/23 12:57:45;;;;;;;4.80;1.20;;;20.90;99.90;;;;;;4970358;28;20180;-76